sensor_id;sensor_type;location;lat;lon;timestamp;P1;durP1;ratioP1;P2;durP2;ratioP2
28003;SDS011;15330;51.234;6.754;2023-03-01T00:01:25;18.10;;;10.95;;
28003;SDS011;15330;51.234;6.754;2023-03-01T00:03:53;18.33;;;11.18;;
28003;SDS011;15330;51.234;6.754;2023-03-01T00:06:19;19.60;;;10.50;;
28003;SDS011;15330;51.234;6.754;2023-03-01T00:08:45;16.85;;;10.98;;
28003;SDS011;15330;51.234;6.754;2023-03-01T00:11:17;22.17;;;10.90;;
28003;SDS011;15330;51.234;6.754;2023-03-01T00:13:43;21.13;;;11.32;;
28003;SDS011;15330;51.234;6.754;2023-03-01T00:16:11;17.40;;;11.00;;
28003;SDS011;15330;51.234;6.754;2023-03-01T00:18:39;20.05;;;11.60;;
28003;SDS011;15330;51.234;6.754;2023-03-01T00:21:04;18.55;;;11.63;;
28003;SDS011;15330;51.234;6.754;2023-03-01T00:23:30;19.83;;;11.27;;
28003;SDS011;15330;51.234;6.754;2023-03-01T00:25:56;18.38;;;11.73;;
28003;SDS011;15330;51.234;6.754;2023-03-01T00:28:22;21.88;;;11.88;;
28003;SDS011;15330;51.234;6.754;2023-03-01T00:30:47;19.10;;;11.95;;
28003;SDS011;15330;51.234;6.754;2023-03-01T00:33:13;19.40;;;11.90;;
28003;SDS011;15330;51.234;6.754;2023-03-01T00:35:38;20.85;;;11.93;;
28003;SDS011;15330;51.234;6.754;2023-03-01T00:38:04;19.73;;;11.63;;
28003;SDS011;15330;51.234;6.754;2023-03-01T00:40:31;17.90;;;12.13;;
28003;SDS011;15330;51.234;6.754;2023-03-01T00:42:58;19.85;;;11.48;;
28003;SDS011;15330;51.234;6.754;2023-03-01T00:45:23;23.33;;;12.35;;
28003;SDS011;15330;51.234;6.754;2023-03-01T00:47:50;22.33;;;12.25;;
28003;SDS011;15330;51.234;6.754;2023-03-01T00:50:15;23.23;;;12.35;;
28003;SDS011;15330;51.234;6.754;2023-03-01T00:52:41;21.92;;;11.90;;
28003;SDS011;15330;51.234;6.754;2023-03-01T00:55:07;19.58;;;12.02;;
28003;SDS011;15330;51.234;6.754;2023-03-01T00:57:33;18.52;;;12.43;;
28003;SDS011;15330;51.234;6.754;2023-03-01T00:59:58;26.85;;;12.45;;
28003;SDS011;15330;51.234;6.754;2023-03-01T01:02:23;25.17;;;12.40;;
28003;SDS011;15330;51.234;6.754;2023-03-01T01:04:49;27.27;;;13.20;;
28003;SDS011;15330;51.234;6.754;2023-03-01T01:07:15;20.70;;;12.77;;
28003;SDS011;15330;51.234;6.754;2023-03-01T01:09:40;22.52;;;12.35;;
28003;SDS011;15330;51.234;6.754;2023-03-01T01:12:06;24.58;;;13.55;;
28003;SDS011;15330;51.234;6.754;2023-03-01T01:14:32;22.75;;;13.55;;
28003;SDS011;15330;51.234;6.754;2023-03-01T01:16:57;21.15;;;12.68;;
28003;SDS011;15330;51.234;6.754;2023-03-01T01:19:23;21.67;;;12.95;;
28003;SDS011;15330;51.234;6.754;2023-03-01T01:21:49;19.63;;;13.23;;
28003;SDS011;15330;51.234;6.754;2023-03-01T01:24:14;19.35;;;12.15;;
28003;SDS011;15330;51.234;6.754;2023-03-01T01:26:40;20.35;;;12.40;;
28003;SDS011;15330;51.234;6.754;2023-03-01T01:29:06;19.92;;;13.02;;
28003;SDS011;15330;51.234;6.754;2023-03-01T01:31:33;20.80;;;12.63;;
28003;SDS011;15330;51.234;6.754;2023-03-01T01:34:00;30.88;;;16.98;;
28003;SDS011;15330;51.234;6.754;2023-03-01T01:36:26;22.58;;;12.25;;
28003;SDS011;15330;51.234;6.754;2023-03-01T01:38:52;19.33;;;12.20;;
28003;SDS011;15330;51.234;6.754;2023-03-01T01:41:18;23.15;;;13.13;;
28003;SDS011;15330;51.234;6.754;2023-03-01T01:43:45;20.30;;;13.15;;
28003;SDS011;15330;51.234;6.754;2023-03-01T01:48:49;22.98;;;12.95;;
28003;SDS011;15330;51.234;6.754;2023-03-01T01:51:23;23.75;;;13.15;;
28003;SDS011;15330;51.234;6.754;2023-03-01T01:53:55;20.70;;;13.00;;
28003;SDS011;15330;51.234;6.754;2023-03-01T01:56:24;21.10;;;12.70;;
28003;SDS011;15330;51.234;6.754;2023-03-01T01:58:51;22.60;;;12.38;;
28003;SDS011;15330;51.234;6.754;2023-03-01T02:01:17;21.00;;;13.38;;
28003;SDS011;15330;51.234;6.754;2023-03-01T02:03:43;21.10;;;12.70;;
28003;SDS011;15330;51.234;6.754;2023-03-01T02:08:45;18.10;;;12.02;;
28003;SDS011;15330;51.234;6.754;2023-03-01T02:11:13;22.60;;;14.00;;
28003;SDS011;15330;51.234;6.754;2023-03-01T02:13:40;21.02;;;13.63;;
28003;SDS011;15330;51.234;6.754;2023-03-01T02:16:09;22.92;;;12.68;;
28003;SDS011;15330;51.234;6.754;2023-03-01T02:18:37;20.70;;;12.57;;
28003;SDS011;15330;51.234;6.754;2023-03-01T02:23:40;24.90;;;12.95;;
28003;SDS011;15330;51.234;6.754;2023-03-01T02:26:11;19.55;;;12.57;;
28003;SDS011;15330;51.234;6.754;2023-03-01T02:28:43;25.55;;;13.05;;
28003;SDS011;15330;51.234;6.754;2023-03-01T02:31:10;21.17;;;14.07;;
28003;SDS011;15330;51.234;6.754;2023-03-01T02:33:57;24.73;;;14.38;;
28003;SDS011;15330;51.234;6.754;2023-03-01T02:36:25;21.15;;;13.23;;
28003;SDS011;15330;51.234;6.754;2023-03-01T02:38:55;21.67;;;13.25;;
28003;SDS011;15330;51.234;6.754;2023-03-01T02:41:23;22.05;;;13.30;;
28003;SDS011;15330;51.234;6.754;2023-03-01T02:43:51;26.73;;;14.30;;
28003;SDS011;15330;51.234;6.754;2023-03-01T02:46:19;24.33;;;14.65;;
28003;SDS011;15330;51.234;6.754;2023-03-01T02:48:50;23.55;;;14.20;;
28003;SDS011;15330;51.234;6.754;2023-03-01T02:56:38;21.65;;;12.05;;
28003;SDS011;15330;51.234;6.754;2023-03-01T02:59:04;26.33;;;13.40;;
28003;SDS011;15330;51.234;6.754;2023-03-01T03:01:29;23.13;;;13.20;;
28003;SDS011;15330;51.234;6.754;2023-03-01T03:04:01;20.20;;;12.85;;
28003;SDS011;15330;51.234;6.754;2023-03-01T03:06:28;22.35;;;14.25;;
28003;SDS011;15330;51.234;6.754;2023-03-01T03:08:54;30.10;;;16.17;;
28003;SDS011;15330;51.234;6.754;2023-03-01T03:11:19;30.90;;;16.27;;
28003;SDS011;15330;51.234;6.754;2023-03-01T03:13:45;28.83;;;15.32;;
28003;SDS011;15330;51.234;6.754;2023-03-01T03:16:13;22.67;;;13.93;;
28003;SDS011;15330;51.234;6.754;2023-03-01T03:18:38;23.30;;;14.65;;
28003;SDS011;15330;51.234;6.754;2023-03-01T03:21:07;26.75;;;14.48;;
28003;SDS011;15330;51.234;6.754;2023-03-01T03:23:35;25.30;;;14.18;;
28003;SDS011;15330;51.234;6.754;2023-03-01T03:26:01;25.73;;;14.02;;
28003;SDS011;15330;51.234;6.754;2023-03-01T03:28:29;22.77;;;14.00;;
28003;SDS011;15330;51.234;6.754;2023-03-01T03:30:55;23.38;;;14.13;;
28003;SDS011;15330;51.234;6.754;2023-03-01T03:33:21;22.55;;;13.32;;
28003;SDS011;15330;51.234;6.754;2023-03-01T03:35:47;22.35;;;13.30;;
28003;SDS011;15330;51.234;6.754;2023-03-01T03:38:15;24.10;;;14.13;;
28003;SDS011;15330;51.234;6.754;2023-03-01T03:41:03;25.35;;;14.48;;
28003;SDS011;15330;51.234;6.754;2023-03-01T03:43:29;23.17;;;14.05;;
28003;SDS011;15330;51.234;6.754;2023-03-01T03:45:56;24.60;;;14.88;;
28003;SDS011;15330;51.234;6.754;2023-03-01T03:48:22;23.58;;;14.40;;
28003;SDS011;15330;51.234;6.754;2023-03-01T03:50:49;27.95;;;14.88;;
28003;SDS011;15330;51.234;6.754;2023-03-01T03:53:16;22.15;;;13.88;;
28003;SDS011;15330;51.234;6.754;2023-03-01T03:55:42;22.52;;;13.95;;
28003;SDS011;15330;51.234;6.754;2023-03-01T03:58:09;25.45;;;13.80;;
28003;SDS011;15330;51.234;6.754;2023-03-01T04:00:38;21.20;;;13.63;;
28003;SDS011;15330;51.234;6.754;2023-03-01T04:03:06;24.10;;;14.02;;
28003;SDS011;15330;51.234;6.754;2023-03-01T04:05:32;21.45;;;14.48;;
28003;SDS011;15330;51.234;6.754;2023-03-01T04:07:57;26.52;;;14.48;;
28003;SDS011;15330;51.234;6.754;2023-03-01T04:10:26;26.92;;;14.23;;
28003;SDS011;15330;51.234;6.754;2023-03-01T04:12:53;24.88;;;14.18;;
28003;SDS011;15330;51.234;6.754;2023-03-01T04:15:21;21.25;;;14.30;;
28003;SDS011;15330;51.234;6.754;2023-03-01T04:17:49;24.52;;;12.75;;
28003;SDS011;15330;51.234;6.754;2023-03-01T04:20:18;26.75;;;14.75;;
28003;SDS011;15330;51.234;6.754;2023-03-01T04:22:58;19.75;;;13.98;;
28003;SDS011;15330;51.234;6.754;2023-03-01T04:25:35;25.02;;;14.95;;
28003;SDS011;15330;51.234;6.754;2023-03-01T04:28:14;23.15;;;14.40;;
28003;SDS011;15330;51.234;6.754;2023-03-01T04:30:39;31.17;;;13.98;;
28003;SDS011;15330;51.234;6.754;2023-03-01T04:33:06;23.25;;;14.90;;
28003;SDS011;15330;51.234;6.754;2023-03-01T04:35:34;27.42;;;14.07;;
28003;SDS011;15330;51.234;6.754;2023-03-01T04:38:00;27.73;;;14.77;;
28003;SDS011;15330;51.234;6.754;2023-03-01T04:40:26;23.20;;;14.02;;
28003;SDS011;15330;51.234;6.754;2023-03-01T04:42:51;22.63;;;13.85;;
28003;SDS011;15330;51.234;6.754;2023-03-01T04:45:17;25.55;;;14.80;;
28003;SDS011;15330;51.234;6.754;2023-03-01T04:47:43;23.63;;;13.48;;
28003;SDS011;15330;51.234;6.754;2023-03-01T04:50:11;23.73;;;14.27;;
28003;SDS011;15330;51.234;6.754;2023-03-01T04:52:38;28.45;;;14.85;;
28003;SDS011;15330;51.234;6.754;2023-03-01T04:55:04;23.60;;;15.88;;
28003;SDS011;15330;51.234;6.754;2023-03-01T04:57:30;24.08;;;14.75;;
28003;SDS011;15330;51.234;6.754;2023-03-01T04:59:56;23.17;;;13.63;;
28003;SDS011;15330;51.234;6.754;2023-03-01T05:02:21;25.13;;;14.57;;
28003;SDS011;15330;51.234;6.754;2023-03-01T05:04:47;23.67;;;14.23;;
28003;SDS011;15330;51.234;6.754;2023-03-01T05:07:12;25.30;;;15.10;;
28003;SDS011;15330;51.234;6.754;2023-03-01T05:09:47;28.05;;;14.57;;
28003;SDS011;15330;51.234;6.754;2023-03-01T05:12:13;28.02;;;14.65;;
28003;SDS011;15330;51.234;6.754;2023-03-01T05:14:40;21.80;;;14.32;;
28003;SDS011;15330;51.234;6.754;2023-03-01T05:17:06;25.20;;;14.65;;
28003;SDS011;15330;51.234;6.754;2023-03-01T05:19:32;26.90;;;15.35;;
28003;SDS011;15330;51.234;6.754;2023-03-01T05:21:57;25.60;;;15.27;;
28003;SDS011;15330;51.234;6.754;2023-03-01T05:24:30;24.25;;;14.48;;
28003;SDS011;15330;51.234;6.754;2023-03-01T05:26:56;30.05;;;14.68;;
28003;SDS011;15330;51.234;6.754;2023-03-01T05:29:23;25.73;;;15.32;;
28003;SDS011;15330;51.234;6.754;2023-03-01T05:31:54;30.30;;;15.95;;
28003;SDS011;15330;51.234;6.754;2023-03-01T05:34:27;29.48;;;15.25;;
28003;SDS011;15330;51.234;6.754;2023-03-01T05:36:54;25.13;;;14.73;;
28003;SDS011;15330;51.234;6.754;2023-03-01T05:39:20;28.33;;;15.57;;
28003;SDS011;15330;51.234;6.754;2023-03-01T05:41:47;26.35;;;15.75;;
28003;SDS011;15330;51.234;6.754;2023-03-01T05:44:13;27.98;;;15.10;;
28003;SDS011;15330;51.234;6.754;2023-03-01T05:46:38;46.47;;;22.55;;
28003;SDS011;15330;51.234;6.754;2023-03-01T05:49:04;39.42;;;20.88;;
28003;SDS011;15330;51.234;6.754;2023-03-01T05:51:30;33.95;;;17.48;;
28003;SDS011;15330;51.234;6.754;2023-03-01T05:53:55;46.35;;;24.67;;
28003;SDS011;15330;51.234;6.754;2023-03-01T05:56:21;36.90;;;18.80;;
28003;SDS011;15330;51.234;6.754;2023-03-01T05:58:48;37.03;;;19.55;;
28003;SDS011;15330;51.234;6.754;2023-03-01T06:01:14;26.30;;;15.73;;
28003;SDS011;15330;51.234;6.754;2023-03-01T06:03:40;38.47;;;19.25;;
28003;SDS011;15330;51.234;6.754;2023-03-01T06:06:05;88.93;;;39.92;;
28003;SDS011;15330;51.234;6.754;2023-03-01T06:08:30;51.45;;;26.17;;
28003;SDS011;15330;51.234;6.754;2023-03-01T06:10:56;42.75;;;20.00;;
28003;SDS011;15330;51.234;6.754;2023-03-01T06:13:21;34.25;;;18.30;;
28003;SDS011;15330;51.234;6.754;2023-03-01T06:15:48;51.53;;;24.90;;
28003;SDS011;15330;51.234;6.754;2023-03-01T06:18:14;45.38;;;22.75;;
28003;SDS011;15330;51.234;6.754;2023-03-01T06:20:39;75.43;;;33.75;;
28003;SDS011;15330;51.234;6.754;2023-03-01T06:23:04;90.28;;;42.45;;
28003;SDS011;15330;51.234;6.754;2023-03-01T06:25:30;64.53;;;30.67;;
28003;SDS011;15330;51.234;6.754;2023-03-01T06:27:55;73.25;;;33.03;;
28003;SDS011;15330;51.234;6.754;2023-03-01T06:30:21;71.22;;;32.50;;
28003;SDS011;15330;51.234;6.754;2023-03-01T06:32:48;85.90;;;40.25;;
28003;SDS011;15330;51.234;6.754;2023-03-01T06:35:14;66.25;;;31.10;;
28003;SDS011;15330;51.234;6.754;2023-03-01T06:37:42;68.70;;;31.83;;
28003;SDS011;15330;51.234;6.754;2023-03-01T06:40:08;30.02;;;17.45;;
28003;SDS011;15330;51.234;6.754;2023-03-01T06:42:36;40.58;;;19.50;;
28003;SDS011;15330;51.234;6.754;2023-03-01T06:45:06;24.73;;;14.75;;
28003;SDS011;15330;51.234;6.754;2023-03-01T06:47:32;42.22;;;19.70;;
28003;SDS011;15330;51.234;6.754;2023-03-01T06:49:58;93.97;;;41.03;;
28003;SDS011;15330;51.234;6.754;2023-03-01T06:52:24;61.90;;;27.50;;
28003;SDS011;15330;51.234;6.754;2023-03-01T06:54:50;46.35;;;22.10;;
28003;SDS011;15330;51.234;6.754;2023-03-01T06:57:16;72.75;;;35.47;;
28003;SDS011;15330;51.234;6.754;2023-03-01T06:59:41;69.10;;;32.55;;
28003;SDS011;15330;51.234;6.754;2023-03-01T07:02:09;85.72;;;40.15;;
28003;SDS011;15330;51.234;6.754;2023-03-01T07:04:38;45.13;;;24.25;;
28003;SDS011;15330;51.234;6.754;2023-03-01T07:07:03;40.47;;;22.20;;
28003;SDS011;15330;51.234;6.754;2023-03-01T07:09:29;67.68;;;34.55;;
28003;SDS011;15330;51.234;6.754;2023-03-01T07:11:54;35.00;;;18.08;;
28003;SDS011;15330;51.234;6.754;2023-03-01T07:14:21;32.42;;;17.85;;
28003;SDS011;15330;51.234;6.754;2023-03-01T07:16:49;107.80;;;55.13;;
28003;SDS011;15330;51.234;6.754;2023-03-01T07:19:15;55.33;;;30.20;;
28003;SDS011;15330;51.234;6.754;2023-03-01T07:21:41;27.55;;;16.60;;
28003;SDS011;15330;51.234;6.754;2023-03-01T07:24:07;23.58;;;14.35;;
28003;SDS011;15330;51.234;6.754;2023-03-01T07:26:33;21.92;;;14.13;;
28003;SDS011;15330;51.234;6.754;2023-03-01T07:28:58;36.33;;;21.05;;
28003;SDS011;15330;51.234;6.754;2023-03-01T07:31:25;22.60;;;14.55;;
28003;SDS011;15330;51.234;6.754;2023-03-01T07:33:52;39.25;;;22.52;;
28003;SDS011;15330;51.234;6.754;2023-03-01T07:36:18;28.27;;;18.88;;
28003;SDS011;15330;51.234;6.754;2023-03-01T07:38:44;24.95;;;15.52;;
28003;SDS011;15330;51.234;6.754;2023-03-01T07:41:09;26.10;;;16.08;;
28003;SDS011;15330;51.234;6.754;2023-03-01T07:43:34;24.05;;;15.88;;
28003;SDS011;15330;51.234;6.754;2023-03-01T07:46:00;28.13;;;17.23;;
28003;SDS011;15330;51.234;6.754;2023-03-01T07:48:26;27.15;;;17.08;;
28003;SDS011;15330;51.234;6.754;2023-03-01T07:50:53;19.98;;;13.95;;
28003;SDS011;15330;51.234;6.754;2023-03-01T07:53:18;32.80;;;17.83;;
28003;SDS011;15330;51.234;6.754;2023-03-01T07:55:43;29.73;;;16.63;;
28003;SDS011;15330;51.234;6.754;2023-03-01T07:58:09;22.60;;;14.80;;
28003;SDS011;15330;51.234;6.754;2023-03-01T08:00:34;39.25;;;22.20;;
28003;SDS011;15330;51.234;6.754;2023-03-01T08:03:00;31.42;;;19.30;;
28003;SDS011;15330;51.234;6.754;2023-03-01T08:05:26;29.38;;;19.67;;
28003;SDS011;15330;51.234;6.754;2023-03-01T08:07:52;29.02;;;18.80;;
28003;SDS011;15330;51.234;6.754;2023-03-01T08:10:18;23.85;;;15.65;;
28003;SDS011;15330;51.234;6.754;2023-03-01T08:12:43;33.13;;;20.25;;
28003;SDS011;15330;51.234;6.754;2023-03-01T08:15:09;21.95;;;16.83;;
28003;SDS011;15330;51.234;6.754;2023-03-01T08:17:35;27.65;;;18.10;;
28003;SDS011;15330;51.234;6.754;2023-03-01T08:20:00;26.40;;;17.50;;
28003;SDS011;15330;51.234;6.754;2023-03-01T08:22:26;26.17;;;17.42;;
28003;SDS011;15330;51.234;6.754;2023-03-01T08:24:51;24.02;;;16.80;;
28003;SDS011;15330;51.234;6.754;2023-03-01T08:27:16;25.83;;;17.95;;
28003;SDS011;15330;51.234;6.754;2023-03-01T08:29:42;25.05;;;16.38;;
28003;SDS011;15330;51.234;6.754;2023-03-01T08:32:07;19.88;;;13.93;;
28003;SDS011;15330;51.234;6.754;2023-03-01T08:34:33;22.30;;;15.02;;
28003;SDS011;15330;51.234;6.754;2023-03-01T08:37:00;21.15;;;15.82;;
28003;SDS011;15330;51.234;6.754;2023-03-01T08:39:26;21.92;;;15.50;;
28003;SDS011;15330;51.234;6.754;2023-03-01T08:41:52;15.30;;;12.77;;
28003;SDS011;15330;51.234;6.754;2023-03-01T08:44:17;20.38;;;15.20;;
28003;SDS011;15330;51.234;6.754;2023-03-01T08:46:43;19.27;;;13.68;;
28003;SDS011;15330;51.234;6.754;2023-03-01T08:49:14;19.40;;;15.20;;
28003;SDS011;15330;51.234;6.754;2023-03-01T08:51:41;23.20;;;14.70;;
28003;SDS011;15330;51.234;6.754;2023-03-01T08:54:14;22.83;;;16.88;;
28003;SDS011;15330;51.234;6.754;2023-03-01T08:56:42;23.65;;;15.50;;
28003;SDS011;15330;51.234;6.754;2023-03-01T08:59:07;18.95;;;14.80;;
28003;SDS011;15330;51.234;6.754;2023-03-01T09:01:34;21.40;;;13.40;;
28003;SDS011;15330;51.234;6.754;2023-03-01T09:03:59;19.17;;;14.77;;
28003;SDS011;15330;51.234;6.754;2023-03-01T09:06:24;15.90;;;13.38;;
28003;SDS011;15330;51.234;6.754;2023-03-01T09:08:50;17.67;;;14.20;;
28003;SDS011;15330;51.234;6.754;2023-03-01T09:11:17;18.23;;;15.10;;
28003;SDS011;15330;51.234;6.754;2023-03-01T09:13:45;16.17;;;12.77;;
28003;SDS011;15330;51.234;6.754;2023-03-01T09:16:12;15.25;;;13.23;;
28003;SDS011;15330;51.234;6.754;2023-03-01T09:18:39;15.80;;;13.18;;
28003;SDS011;15330;51.234;6.754;2023-03-01T09:21:09;17.10;;;13.35;;
28003;SDS011;15330;51.234;6.754;2023-03-01T09:23:37;16.67;;;12.65;;
28003;SDS011;15330;51.234;6.754;2023-03-01T09:26:07;15.38;;;12.20;;
28003;SDS011;15330;51.234;6.754;2023-03-01T09:28:37;14.95;;;12.65;;
28003;SDS011;15330;51.234;6.754;2023-03-01T09:31:03;19.95;;;14.25;;
28003;SDS011;15330;51.234;6.754;2023-03-01T09:33:30;19.35;;;13.02;;
28003;SDS011;15330;51.234;6.754;2023-03-01T09:35:57;13.48;;;12.00;;
28003;SDS011;15330;51.234;6.754;2023-03-01T09:38:23;19.25;;;12.18;;
28003;SDS011;15330;51.234;6.754;2023-03-01T09:40:49;20.23;;;18.23;;
28003;SDS011;15330;51.234;6.754;2023-03-01T09:46:06;21.38;;;19.20;;
28003;SDS011;15330;51.234;6.754;2023-03-01T09:48:41;38.27;;;35.50;;
28003;SDS011;15330;51.234;6.754;2023-03-01T09:51:33;21.60;;;19.45;;
28003;SDS011;15330;51.234;6.754;2023-03-01T09:54:03;31.02;;;28.75;;
28003;SDS011;15330;51.234;6.754;2023-03-01T09:56:35;30.10;;;27.60;;
28003;SDS011;15330;51.234;6.754;2023-03-01T10:01:31;32.70;;;30.23;;
28003;SDS011;15330;51.234;6.754;2023-03-01T10:06:28;33.70;;;31.10;;
28003;SDS011;15330;51.234;6.754;2023-03-01T10:09:13;53.08;;;49.60;;
28003;SDS011;15330;51.234;6.754;2023-03-01T10:11:43;19.17;;;17.45;;
28003;SDS011;15330;51.234;6.754;2023-03-01T10:16:46;25.27;;;23.33;;
28003;SDS011;15330;51.234;6.754;2023-03-01T10:19:30;34.60;;;31.95;;
28003;SDS011;15330;51.234;6.754;2023-03-01T10:22:07;35.85;;;32.95;;
28003;SDS011;15330;51.234;6.754;2023-03-01T10:24:40;32.78;;;29.98;;
28003;SDS011;15330;51.234;6.754;2023-03-01T10:27:12;29.73;;;27.15;;
28003;SDS011;15330;51.234;6.754;2023-03-01T10:29:49;33.05;;;30.42;;
28003;SDS011;15330;51.234;6.754;2023-03-01T10:32:42;31.10;;;27.95;;
28003;SDS011;15330;51.234;6.754;2023-03-01T10:35:16;41.03;;;37.85;;
28003;SDS011;15330;51.234;6.754;2023-03-01T10:37:58;24.83;;;22.15;;
28003;SDS011;15330;51.234;6.754;2023-03-01T10:40:32;30.55;;;26.85;;
28003;SDS011;15330;51.234;6.754;2023-03-01T10:43:00;24.45;;;22.13;;
28003;SDS011;15330;51.234;6.754;2023-03-01T10:50:42;19.25;;;17.30;;
28003;SDS011;15330;51.234;6.754;2023-03-01T10:53:22;14.93;;;13.32;;
28003;SDS011;15330;51.234;6.754;2023-03-01T10:56:01;28.38;;;19.33;;
28003;SDS011;15330;51.234;6.754;2023-03-01T10:58:28;27.23;;;19.55;;
28003;SDS011;15330;51.234;6.754;2023-03-01T11:03:35;19.77;;;15.50;;
28003;SDS011;15330;51.234;6.754;2023-03-01T11:08:34;20.58;;;15.18;;
28003;SDS011;15330;51.234;6.754;2023-03-01T11:11:24;25.88;;;18.90;;
28003;SDS011;15330;51.234;6.754;2023-03-01T11:16:45;16.58;;;12.88;;
28003;SDS011;15330;51.234;6.754;2023-03-01T11:19:15;15.70;;;11.43;;
28003;SDS011;15330;51.234;6.754;2023-03-01T11:24:29;17.92;;;12.95;;
28003;SDS011;15330;51.234;6.754;2023-03-01T11:26:59;15.82;;;11.35;;
28003;SDS011;15330;51.234;6.754;2023-03-01T11:29:41;15.88;;;12.00;;
28003;SDS011;15330;51.234;6.754;2023-03-01T11:32:11;17.77;;;11.15;;
28003;SDS011;15330;51.234;6.754;2023-03-01T11:40:20;16.15;;;12.32;;
28003;SDS011;15330;51.234;6.754;2023-03-01T11:43:11;17.88;;;11.98;;
28003;SDS011;15330;51.234;6.754;2023-03-01T11:56:57;18.00;;;11.48;;
28003;SDS011;15330;51.234;6.754;2023-03-01T12:02:49;21.05;;;11.98;;
28003;SDS011;15330;51.234;6.754;2023-03-01T12:10:30;14.13;;;9.73;;
28003;SDS011;15330;51.234;6.754;2023-03-01T12:18:47;14.70;;;9.73;;
28003;SDS011;15330;51.234;6.754;2023-03-01T12:23:56;14.63;;;10.80;;
28003;SDS011;15330;51.234;6.754;2023-03-01T12:30:38;12.98;;;9.80;;
28003;SDS011;15330;51.234;6.754;2023-03-01T12:43:41;14.35;;;10.32;;
28003;SDS011;15330;51.234;6.754;2023-03-01T12:51:38;18.00;;;11.25;;
28003;SDS011;15330;51.234;6.754;2023-03-01T12:54:41;18.73;;;10.95;;
28003;SDS011;15330;51.234;6.754;2023-03-01T12:57:21;14.10;;;9.90;;
28003;SDS011;15330;51.234;6.754;2023-03-01T13:02:37;16.20;;;10.00;;
28003;SDS011;15330;51.234;6.754;2023-03-01T13:05:31;17.58;;;10.25;;
28003;SDS011;15330;51.234;6.754;2023-03-01T13:08:16;16.33;;;10.57;;
28003;SDS011;15330;51.234;6.754;2023-03-01T13:10:52;14.00;;;8.85;;
28003;SDS011;15330;51.234;6.754;2023-03-01T13:13:30;17.87;;;9.33;;
28003;SDS011;15330;51.234;6.754;2023-03-01T13:15:56;14.32;;;9.32;;
28003;SDS011;15330;51.234;6.754;2023-03-01T13:18:42;14.57;;;8.93;;
28003;SDS011;15330;51.234;6.754;2023-03-01T13:21:08;13.27;;;9.25;;
28003;SDS011;15330;51.234;6.754;2023-03-01T13:23:35;15.85;;;9.48;;
28003;SDS011;15330;51.234;6.754;2023-03-01T13:33:45;18.70;;;8.57;;
28003;SDS011;15330;51.234;6.754;2023-03-01T13:36:13;15.55;;;9.15;;
28003;SDS011;15330;51.234;6.754;2023-03-01T13:38:58;13.85;;;8.75;;
28003;SDS011;15330;51.234;6.754;2023-03-01T13:46:45;14.82;;;9.43;;
28003;SDS011;15330;51.234;6.754;2023-03-01T13:49:18;14.70;;;9.95;;
28003;SDS011;15330;51.234;6.754;2023-03-01T13:51:46;14.38;;;8.82;;
28003;SDS011;15330;51.234;6.754;2023-03-01T13:54:14;13.60;;;9.50;;
28003;SDS011;15330;51.234;6.754;2023-03-01T13:56:41;13.70;;;9.45;;
28003;SDS011;15330;51.234;6.754;2023-03-01T14:01:42;16.30;;;9.63;;
28003;SDS011;15330;51.234;6.754;2023-03-01T14:09:43;15.93;;;10.02;;
28003;SDS011;15330;51.234;6.754;2023-03-01T14:14:40;15.50;;;9.45;;
28003;SDS011;15330;51.234;6.754;2023-03-01T14:19:55;13.63;;;9.10;;
28003;SDS011;15330;51.234;6.754;2023-03-01T14:22:24;17.77;;;9.90;;
28003;SDS011;15330;51.234;6.754;2023-03-01T14:24:59;15.50;;;9.63;;
28003;SDS011;15330;51.234;6.754;2023-03-01T14:27:27;18.55;;;9.68;;
28003;SDS011;15330;51.234;6.754;2023-03-01T14:29:58;14.35;;;9.38;;
28003;SDS011;15330;51.234;6.754;2023-03-01T14:32:26;15.07;;;9.20;;
28003;SDS011;15330;51.234;6.754;2023-03-01T14:34:53;14.88;;;9.68;;
28003;SDS011;15330;51.234;6.754;2023-03-01T14:40:19;14.73;;;9.55;;
28003;SDS011;15330;51.234;6.754;2023-03-01T14:43:08;15.23;;;9.63;;
28003;SDS011;15330;51.234;6.754;2023-03-01T14:45:36;17.27;;;9.85;;
28003;SDS011;15330;51.234;6.754;2023-03-01T14:48:02;17.05;;;9.88;;
28003;SDS011;15330;51.234;6.754;2023-03-01T14:50:31;15.63;;;9.60;;
28003;SDS011;15330;51.234;6.754;2023-03-01T14:53:01;16.08;;;9.50;;
28003;SDS011;15330;51.234;6.754;2023-03-01T14:55:30;17.02;;;10.30;;
28003;SDS011;15330;51.234;6.754;2023-03-01T14:57:59;15.55;;;9.60;;
28003;SDS011;15330;51.234;6.754;2023-03-01T15:00:29;15.80;;;9.57;;
28003;SDS011;15330;51.234;6.754;2023-03-01T15:02:58;15.32;;;8.65;;
28003;SDS011;15330;51.234;6.754;2023-03-01T15:05:31;13.40;;;9.60;;
28003;SDS011;15330;51.234;6.754;2023-03-01T15:07:59;15.18;;;8.95;;
28003;SDS011;15330;51.234;6.754;2023-03-01T15:10:30;14.98;;;9.57;;
28003;SDS011;15330;51.234;6.754;2023-03-01T15:13:11;17.38;;;9.20;;
28003;SDS011;15330;51.234;6.754;2023-03-01T15:15:39;14.65;;;9.38;;
28003;SDS011;15330;51.234;6.754;2023-03-01T15:18:21;14.48;;;9.07;;
28003;SDS011;15330;51.234;6.754;2023-03-01T15:20:51;15.68;;;9.27;;
28003;SDS011;15330;51.234;6.754;2023-03-01T15:25:45;16.92;;;9.88;;
28003;SDS011;15330;51.234;6.754;2023-03-01T15:28:12;19.38;;;9.65;;
28003;SDS011;15330;51.234;6.754;2023-03-01T15:30:45;14.38;;;9.13;;
28003;SDS011;15330;51.234;6.754;2023-03-01T15:33:19;16.42;;;9.23;;
28003;SDS011;15330;51.234;6.754;2023-03-01T15:35:48;13.85;;;8.95;;
28003;SDS011;15330;51.234;6.754;2023-03-01T15:38:25;23.98;;;9.13;;
28003;SDS011;15330;51.234;6.754;2023-03-01T15:40:51;17.05;;;8.85;;
28003;SDS011;15330;51.234;6.754;2023-03-01T15:46:05;11.93;;;8.25;;
28003;SDS011;15330;51.234;6.754;2023-03-01T15:48:44;16.98;;;9.38;;
28003;SDS011;15330;51.234;6.754;2023-03-01T15:51:11;13.23;;;8.57;;
28003;SDS011;15330;51.234;6.754;2023-03-01T15:53:39;15.27;;;8.75;;
28003;SDS011;15330;51.234;6.754;2023-03-01T15:56:05;15.65;;;8.77;;
28003;SDS011;15330;51.234;6.754;2023-03-01T15:58:32;20.05;;;10.40;;
28003;SDS011;15330;51.234;6.754;2023-03-01T16:00:58;17.80;;;10.13;;
28003;SDS011;15330;51.234;6.754;2023-03-01T16:03:24;13.63;;;7.80;;
28003;SDS011;15330;51.234;6.754;2023-03-01T16:05:50;14.00;;;9.00;;
28003;SDS011;15330;51.234;6.754;2023-03-01T16:08:16;22.23;;;7.68;;
28003;SDS011;15330;51.234;6.754;2023-03-01T16:10:43;15.43;;;8.23;;
28003;SDS011;15330;51.234;6.754;2023-03-01T16:13:09;15.85;;;8.32;;
28003;SDS011;15330;51.234;6.754;2023-03-01T16:15:35;13.15;;;8.30;;
28003;SDS011;15330;51.234;6.754;2023-03-01T16:18:01;13.73;;;8.35;;
28003;SDS011;15330;51.234;6.754;2023-03-01T16:20:31;17.85;;;10.27;;
28003;SDS011;15330;51.234;6.754;2023-03-01T16:23:04;17.75;;;8.57;;
28003;SDS011;15330;51.234;6.754;2023-03-01T16:25:31;13.57;;;7.93;;
28003;SDS011;15330;51.234;6.754;2023-03-01T16:27:58;21.77;;;10.57;;
28003;SDS011;15330;51.234;6.754;2023-03-01T16:30:25;19.92;;;10.63;;
28003;SDS011;15330;51.234;6.754;2023-03-01T16:32:51;15.15;;;8.40;;
28003;SDS011;15330;51.234;6.754;2023-03-01T16:35:18;16.33;;;8.25;;
28003;SDS011;15330;51.234;6.754;2023-03-01T16:37:46;14.63;;;8.45;;
28003;SDS011;15330;51.234;6.754;2023-03-01T16:40:17;17.52;;;9.43;;
28003;SDS011;15330;51.234;6.754;2023-03-01T16:42:50;13.48;;;7.63;;